Date,TemperatureHighF,TemperatureAvgF,TemperatureLowF,DewpointHighF,DewpointAvgF,DewpointLowF,HumidityHigh,HumidityAvg,HumidityLow,PressureMaxIn,PressureMinIn,WindSpeedMaxMPH,WindSpeedAvgMPH,GustSpeedMaxMPH,PrecipitationSumIn
2013-8-1,77.5,71.9,67.5,69.9,66.4,61.5,99,84,58,29.85,29.64,6,3,0,0.72
2013-8-2,86.5,76.3,67.6,69.9,64.5,60.3,98,70,43,29.73,29.60,11,4,0,0.00
2013-8-3,81.5,73.8,68.4,67.5,63.7,58.7,92,71,57,29.73,29.65,10,5,0,0.06
2013-8-4,82.6,74.2,67.5,65.6,57.9,52.4,84,59,40,29.78,29.67,8,2,0,0.00
2013-8-5,74.1,72.1,67.6,55.0,53.1,52.2,58,51,47,29.86,29.79,5,2,0,0.00
2013-8-6,83.1,74.4,66.7,61.9,57.4,53.0,81,57,39,29.94,29.85,6,2,0,0.00
2013-8-7,81.5,74.6,72.1,69.5,64.5,60.9,89,71,58,29.96,29.88,7,2,0,0.00
2013-8-8,86.0,75.8,71.8,75.3,71.6,68.4,93,87,68,29.89,29.81,8,3,0,0.15
2013-8-9,87.6,78.6,74.5,76.6,74.5,71.7,98,88,65,29.83,29.61,14,4,0,0.19
2013-8-10,87.1,77.8,70.5,73.6,64.0,57.6,92,65,41,29.87,29.67,10,3,0,0.00
2013-8-11,82.9,74.0,66.6,67.0,58.0,51.8,77,58,41,29.95,29.85,7,2,0,0.00
2013-8-12,86.5,76.6,70.2,70.9,66.6,59.9,93,73,43,29.85,29.74,8,2,0,0.00
2013-8-13,82.8,74.6,68.5,72.9,69.3,65.6,98,84,60,29.75,29.52,5,2,0,0.91
2013-8-14,76.1,69.9,61.7,67.1,56.3,51.0,94,64,45,29.86,29.56,10,5,0,0.01
2013-8-15,81.1,69.8,60.8,55.7,52.0,47.1,72,55,34,29.97,29.87,6,2,0,0.00
2013-8-16,84.0,73.4,64.6,58.4,55.5,50.9,79,56,35,30.02,29.94,7,2,0,0.00
2013-8-17,84.0,74.4,67.3,62.2,57.9,54.5,78,58,39,30.10,30.03,6,2,0,0.00
2013-8-18,77.9,73.9,70.7,63.3,58.9,51.9,76,60,45,30.08,29.95,5,1,0,0.00
2013-8-19,79.9,73.2,66.9,66.5,63.0,60.7,88,71,54,29.95,29.85,9,4,0,0.00
2013-8-20,88.9,78.4,68.2,69.2,65.8,61.9,92,68,41,29.96,29.86,6,2,0,0.00
2013-8-21,91.2,83.3,75.4,69.1,65.6,62.4,76,57,40,29.99,29.86,8,3,0,0.00
2013-8-22,79.0,75.0,70.5,72.9,71.7,68.4,99,90,70,29.87,29.69,7,4,0,1.40
2013-8-23,81.0,75.9,70.9,71.9,62.5,54.5,93,66,41,29.92,29.68,6,1,0,0.00
2013-8-24,82.6,73.0,65.3,62.0,55.5,51.4,74,55,34,30.16,29.93,5,2,0,0.00
2013-8-25,84.9,73.8,64.6,62.1,58.5,53.5,84,62,36,30.21,30.05,8,3,0,0.00
2013-8-26,80.1,77.8,73.2,71.3,69.3,67.1,93,76,66,29.80,29.72,6,4,0,0.04
2013-8-27,86.7,78.1,72.3,71.4,69.7,68.4,91,77,58,29.72,29.62,10,3,0,0.00
2013-8-28,88.3,76.8,73.0,73.5,71.7,68.4,99,85,56,29.71,29.66,5,1,0,1.58
2013-8-29,81.3,75.1,70.9,71.9,69.0,66.0,95,82,65,29.84,29.70,5,1,0,0.00
2013-8-30,86.2,77.0,70.3,72.9,69.0,66.3,89,77,57,29.84,29.67,9,4,0,0.00
2013-8-31,87.6,79.0,73.2,75.7,72.9,70.6,92,82,68,29.68,29.60,10,6,0,0.00